Airfield :







YOU CAN JOIN US ON...

 
LOGIN :

Register | Disclaimer

   EN    FR    IT 

 









Legend :    VFR   Marginal VFR   IFR   Intensive IFR   Very Intensive IFR
Visi :
Ceiling :
>= 8 km
>= 3000ft
5 to 8 km
1000 to 3000 ft
1500m to 5 km
500 to 1000 ft
800 to 1500m
200 to 500 ft
< 800m
< 200 ft
Symbols :   Thunderstorms  Fog  Heavy snow  Heavy precipitations  Wind > 20 kt







- Airport Elevation : 787 ft
- IATA code : RUT


KRUT - Rutland - Southern Vermont Regional

CURRENT METAR :
  • 160847Z AUTO 20005KT 10SM -RA SCT016 OVC044 17/15 A2987 RMK AO2 RAB19 P0000 $

EXPIRED METARs :
  • 160756Z AUTO 22005KT 10SM OVC016 17/15 A2987 RMK AO2 SLP107 T01670150 $
  • 160656Z AUTO VRB04KT 10SM OVC022 16/14 A2987 RMK AO2 RAE52 SLP107 P0000 T01610144 $
  • 160622Z AUTO 14003KT 10SM -RA OVC026 16/14 A2988 RMK AO2 P0000 $
  • 160556Z AUTO 23009G14KT 10SM -RA OVC030 17/14 A2988 RMK AO2 SLP108 P0000 60000 T01720139 10211 20172 55001 $

TAF KRUT
Valid from the 16 at 07:00 until the 17 at 06:00 UTC


160704Z 1607/1706 VRB04KT 6SM BR VCSH OVC022
FM161800 19003KT 4SM -SHRA BR OVC015
FM162200 VRB04KT P6SM VCSH SCT015 BKN025
FM170300 VRB03KT 6SM BR SCT035
KZBW FIR / North America



MET'MAP, your aeronautical weather chart ! - Copyright ORBIFLY December 2007 - Disclaimer

ORBIFLY MET'MAP TEAM :

Programming & Development : Alexandra Zaïnal
Concept & Development : Baudouin d'Aumeries
Co-Development & Prog : Marc-Olivier Méhu
Technical & hardware support : Manuel Goepfert

Contact : metmap@orbifly.com




SOURCES & CREDITS :

   NOAA